createdAt,value
2018-02-24T00:00:43.282Z,23.60
2018-02-24T00:01:43.250Z,23.50
2018-02-24T00:02:43.226Z,23.50
2018-02-24T00:03:43.223Z,22.30
2018-02-24T00:04:43.202Z,24.90
2018-02-24T00:05:43.181Z,22.50
2018-02-24T00:06:43.202Z,24.00
2018-02-24T00:07:43.182Z,24.00
2018-02-24T00:08:43.130Z,25.60
2018-02-24T00:09:43.117Z,23.90
2018-02-24T00:10:43.106Z,24.50
2018-02-24T00:11:43.092Z,25.30
2018-02-24T00:12:43.089Z,24.40
2018-02-24T00:13:43.088Z,24.80
2018-02-24T00:14:43.068Z,25.30
2018-02-24T00:15:43.019Z,23.90
2018-02-24T00:16:43.019Z,23.20
2018-02-24T00:17:43.016Z,23.70
2018-02-24T00:18:42.983Z,22.50
2018-02-24T00:19:42.976Z,23.30
2018-02-24T00:20:42.973Z,25.60
2018-02-24T00:21:42.926Z,23.30
2018-02-24T00:22:42.927Z,26.00
2018-02-24T00:23:42.897Z,27.70
2018-02-24T00:24:42.886Z,25.10
2018-02-24T00:25:42.882Z,22.90
2018-02-24T00:26:42.886Z,23.70
2018-02-24T00:27:42.867Z,24.20
2018-02-24T00:28:42.817Z,24.90
2018-02-24T00:29:42.822Z,25.40
2018-02-24T00:30:42.812Z,24.80
2018-02-24T00:31:42.799Z,26.70
2018-02-24T00:32:42.807Z,25.30
2018-02-24T00:33:42.762Z,24.60
2018-02-24T00:34:42.733Z,25.30
2018-02-24T00:35:42.722Z,23.50
2018-02-24T00:36:42.700Z,26.60
2018-02-24T00:37:42.678Z,24.50
2018-02-24T00:38:42.665Z,25.80
2018-02-24T00:39:42.667Z,25.70
2018-02-24T00:40:42.637Z,26.60
2018-02-24T00:41:42.613Z,26.50
2018-02-24T00:42:42.604Z,27.80
2018-02-24T00:43:42.585Z,24.70
2018-02-24T00:44:42.583Z,23.60
2018-02-24T00:45:42.552Z,25.10
2018-02-24T00:46:42.539Z,24.50
2018-02-24T00:47:42.521Z,26.90
2018-02-24T00:48:42.526Z,26.70
2018-02-24T00:49:42.488Z,22.80
2018-02-24T00:50:42.480Z,23.30
2018-02-24T00:51:42.456Z,27.00
2018-02-24T00:52:42.440Z,23.60
2018-02-24T00:53:42.449Z,24.90
2018-02-24T00:54:42.424Z,24.50
2018-02-24T00:55:42.409Z,24.80
2018-02-24T00:56:42.435Z,26.20
2018-02-24T00:57:42.371Z,23.80
2018-02-24T00:58:42.349Z,25.30
2018-02-24T00:59:42.330Z,26.60
2018-02-24T01:00:42.322Z,27.70
2018-02-24T01:01:42.304Z,26.10
2018-02-24T01:02:42.354Z,24.60
2018-02-24T01:03:42.270Z,26.60
2018-02-24T01:04:42.293Z,25.90
2018-02-24T01:05:42.242Z,26.10
2018-02-24T01:06:42.229Z,26.50
2018-02-24T01:07:42.220Z,26.60
2018-02-24T01:08:42.192Z,26.00
2018-02-24T01:09:42.174Z,23.30
2018-02-24T01:10:42.171Z,26.80
2018-02-24T01:11:42.181Z,23.60
2018-02-24T01:12:42.145Z,22.00
2018-02-24T01:13:42.116Z,25.10
2018-02-24T01:14:42.107Z,28.00
2018-02-24T01:15:42.087Z,23.90
2018-02-24T01:16:42.098Z,23.90
2018-02-24T01:17:42.051Z,25.80
2018-02-24T01:18:42.050Z,24.10
2018-02-24T01:19:42.023Z,25.90
2018-02-24T01:20:42.022Z,24.90
2018-02-24T01:21:41.985Z,25.20
2018-02-24T01:22:41.965Z,25.20
2018-02-24T01:23:41.954Z,25.70
2018-02-24T01:24:41.942Z,28.70
2018-02-24T01:25:41.920Z,23.00
2018-02-24T01:26:41.916Z,23.20
2018-02-24T01:27:41.893Z,24.10
2018-02-24T01:28:41.879Z,26.40
2018-02-24T01:29:41.898Z,23.70
2018-02-24T01:30:41.851Z,23.20
2018-02-24T01:31:41.827Z,25.70
2018-02-24T01:32:41.813Z,23.90
2018-02-24T01:33:41.793Z,24.60
2018-02-24T01:34:41.784Z,24.90
2018-02-24T01:35:41.774Z,25.60
2018-02-24T01:36:41.747Z,24.60
2018-02-24T01:37:41.734Z,25.60
2018-02-24T01:38:41.716Z,24.50
2018-02-24T01:39:41.696Z,26.00
2018-02-24T01:40:41.680Z,26.40
2018-02-24T01:41:41.668Z,25.40
2018-02-24T01:42:41.651Z,25.30
2018-02-24T01:43:41.639Z,25.60
2018-02-24T01:44:41.623Z,21.70
2018-02-24T01:45:41.607Z,27.80
2018-02-24T01:46:41.589Z,26.60
2018-02-24T01:47:41.577Z,25.10
2018-02-24T01:48:41.556Z,25.80
2018-02-24T01:49:41.538Z,22.50
2018-02-24T01:50:41.542Z,23.60
2018-02-24T01:51:41.515Z,25.50
2018-02-24T01:52:41.494Z,24.10
2018-02-24T01:53:41.479Z,22.50
2018-02-24T01:54:41.461Z,22.30
2018-02-24T01:55:41.442Z,26.10
2018-02-24T01:56:41.429Z,29.00
2018-02-24T01:57:41.410Z,25.10
2018-02-24T01:58:41.396Z,25.70
2018-02-24T01:59:41.382Z,27.40
2018-02-24T02:00:41.364Z,24.10
2018-02-24T02:01:41.349Z,24.90
2018-02-24T02:02:41.336Z,26.30
2018-02-24T02:03:41.317Z,26.10
2018-02-24T02:04:41.304Z,23.20
2018-02-24T02:05:41.289Z,26.60
2018-02-24T02:06:41.269Z,26.40
2018-02-24T02:07:41.254Z,24.00
2018-02-24T02:08:41.235Z,23.80
2018-02-24T02:09:41.243Z,25.40
2018-02-24T02:10:41.213Z,23.40
2018-02-24T02:11:41.196Z,26.80
2018-02-24T02:12:41.172Z,27.60
2018-02-24T02:13:41.156Z,27.30
2018-02-24T02:14:41.146Z,25.10
2018-02-24T02:15:41.126Z,24.50
2018-02-24T02:16:41.116Z,26.00
2018-02-24T02:17:41.093Z,26.90
2018-02-24T02:18:41.079Z,24.40
2018-02-24T02:19:41.061Z,24.60
2018-02-24T02:20:41.046Z,26.00
2018-02-24T02:21:41.033Z,22.60
2018-02-24T02:22:41.014Z,27.80
2018-02-24T02:23:40.998Z,26.70
2018-02-24T02:24:40.980Z,25.10
2018-02-24T02:25:40.966Z,23.20
2018-02-24T02:26:40.953Z,24.20
2018-02-24T02:27:40.934Z,24.50
2018-02-24T02:28:40.918Z,24.70
2018-02-24T02:29:40.909Z,25.90
2018-02-24T02:30:40.888Z,27.80
2018-02-24T02:31:40.875Z,23.80
2018-02-24T02:32:40.852Z,26.10
2018-02-24T02:33:40.837Z,24.70
2018-02-24T02:34:40.824Z,25.50
2018-02-24T02:35:40.807Z,23.60
2018-02-24T02:36:40.790Z,24.40
2018-02-24T02:37:40.778Z,24.40
2018-02-24T02:38:40.776Z,24.30
2018-02-24T02:39:40.739Z,22.30
2018-02-24T02:40:40.730Z,26.40
2018-02-24T02:41:40.711Z,26.80
2018-02-24T02:42:40.698Z,28.60
2018-02-24T02:43:40.683Z,25.60
2018-02-24T02:44:40.674Z,26.10
2018-02-24T02:45:40.647Z,23.40
2018-02-24T02:46:40.633Z,24.10
2018-02-24T02:47:40.623Z,21.90
2018-02-24T02:48:40.595Z,23.50
2018-02-24T02:49:40.583Z,25.30
2018-02-24T02:50:40.565Z,22.20
2018-02-24T02:51:40.553Z,24.10
2018-02-24T02:52:40.533Z,26.80
2018-02-24T02:53:40.516Z,23.40
2018-02-24T02:54:40.506Z,23.50
2018-02-24T02:55:40.486Z,23.70
2018-02-24T02:56:40.487Z,23.90
2018-02-24T02:57:40.464Z,24.10
2018-02-24T02:58:40.440Z,25.30
2018-02-24T02:59:40.420Z,22.30
2018-02-24T03:00:40.404Z,25.00
2018-02-24T03:01:40.393Z,25.10
2018-02-24T03:02:40.371Z,25.60
2018-02-24T03:03:40.358Z,21.90
2018-02-24T03:04:40.343Z,24.80
2018-02-24T03:05:40.340Z,24.50
2018-02-24T03:06:40.317Z,26.20
2018-02-24T03:07:40.295Z,23.80
2018-02-24T03:08:40.275Z,27.40
2018-02-24T03:09:40.271Z,25.30
2018-02-24T03:10:40.245Z,24.50
2018-02-24T03:11:40.240Z,23.80
2018-02-24T03:12:40.215Z,24.80
2018-02-24T03:13:40.208Z,25.70
2018-02-24T03:14:40.183Z,23.00
2018-02-24T03:15:40.164Z,25.80
2018-02-24T03:16:40.153Z,27.50
2018-02-24T03:17:40.134Z,23.90
2018-02-24T03:18:40.133Z,22.20
2018-02-24T03:19:40.103Z,24.70
2018-02-24T03:20:40.095Z,25.80
2018-02-24T03:21:40.066Z,25.80
2018-02-24T03:22:40.060Z,25.50
2018-02-24T03:23:40.038Z,27.60
2018-02-24T03:24:40.022Z,23.90
2018-02-24T03:25:40.010Z,24.10
2018-02-24T03:26:39.990Z,25.50
2018-02-24T03:27:39.971Z,27.80
2018-02-24T03:28:39.952Z,24.30
2018-02-24T03:29:39.937Z,25.50
2018-02-24T03:30:39.932Z,22.40
2018-02-24T03:31:39.909Z,23.50
2018-02-24T03:32:39.890Z,27.90
2018-02-24T03:33:39.875Z,24.70
2018-02-24T03:34:39.871Z,25.30
2018-02-24T03:35:39.841Z,25.90
2018-02-24T03:36:39.842Z,25.70
2018-02-24T03:37:39.810Z,24.90
2018-02-24T03:38:39.803Z,23.80
2018-02-24T03:39:39.784Z,28.80
2018-02-24T03:40:39.762Z,27.90
2018-02-24T03:41:39.747Z,22.50
2018-02-24T03:44:14.424Z,26.40
2018-02-24T03:45:13.757Z,26.20
2018-02-24T03:47:08.263Z,28.10
2018-02-24T03:48:08.213Z,25.50
2018-02-24T03:50:01.876Z,26.60
2018-02-24T03:51:01.853Z,26.50
2018-02-24T03:52:56.454Z,27.10
2018-02-24T03:53:55.627Z,25.60
2018-02-24T03:55:49.358Z,25.30
2018-02-24T03:56:49.302Z,23.70
2018-02-24T03:58:43.756Z,27.60
2018-02-24T03:59:42.965Z,24.70
2018-02-24T04:01:36.589Z,26.80
2018-02-24T04:02:36.552Z,26.20
2018-02-24T04:04:30.231Z,26.40
2018-02-24T04:05:30.198Z,28.20
2018-02-24T04:07:23.811Z,28.10
2018-02-24T04:08:23.765Z,23.90
2018-02-24T04:10:17.453Z,27.00
2018-02-24T04:11:17.407Z,26.20
2018-02-24T04:13:12.321Z,27.90
2018-02-24T04:14:11.747Z,29.60
2018-02-24T04:16:06.194Z,26.20
2018-02-24T04:17:06.137Z,28.80
2018-02-24T04:19:00.063Z,26.00
2018-02-24T04:20:00.025Z,26.30
2018-02-24T04:21:53.683Z,27.50
2018-02-24T04:22:53.651Z,25.90
2018-02-24T04:24:47.349Z,29.40
2018-02-24T04:25:47.276Z,25.90
2018-02-24T04:27:42.015Z,27.20
2018-02-24T04:28:41.930Z,30.60
2018-02-24T04:30:36.370Z,30.10
2018-02-24T04:31:35.568Z,26.20
2018-02-24T04:33:30.017Z,26.80
2018-02-24T04:34:29.135Z,28.80
2018-02-24T04:36:25.058Z,25.80
2018-02-24T04:37:24.246Z,25.90
2018-02-24T04:39:17.987Z,25.40
2018-02-24T04:40:17.929Z,28.10
2018-02-24T04:42:12.343Z,31.10
2018-02-24T04:43:11.589Z,27.00
2018-02-24T04:45:05.517Z,28.00
2018-02-24T04:46:05.486Z,27.50
2018-02-24T04:48:00.918Z,28.50
2018-02-24T04:48:59.896Z,30.20
2018-02-24T04:50:54.823Z,26.80
2018-02-24T04:51:53.464Z,27.80
2018-02-24T04:53:47.299Z,24.80
2018-02-24T04:54:47.241Z,25.10
2018-02-24T04:56:40.917Z,26.00
2018-02-24T04:57:40.869Z,29.00
2018-02-24T04:59:34.626Z,30.20
2018-02-24T05:00:34.577Z,27.40
2018-02-24T05:02:28.172Z,30.10
2018-02-24T05:03:28.165Z,27.30
2018-02-24T05:05:21.766Z,27.70
2018-02-24T05:06:21.732Z,27.50
2018-02-24T05:08:15.295Z,29.30
2018-02-24T05:09:15.221Z,31.40
2018-02-24T05:11:09.230Z,30.60
2018-02-24T05:12:09.174Z,30.10
2018-02-24T05:14:02.798Z,27.80
2018-02-24T05:15:02.791Z,27.30
2018-02-24T05:16:56.610Z,27.80
2018-02-24T05:17:56.526Z,28.80
2018-02-24T05:19:51.444Z,29.80
2018-02-24T05:20:50.185Z,26.90
2018-02-24T05:22:44.599Z,28.00
2018-02-24T05:23:43.786Z,29.50
2018-02-24T05:25:37.572Z,29.60
2018-02-24T05:26:37.459Z,28.70
2018-02-24T05:28:31.225Z,28.30
2018-02-24T05:29:31.196Z,27.20
2018-02-24T05:31:26.123Z,27.80
2018-02-24T05:32:24.834Z,29.10
2018-02-24T05:34:19.228Z,30.30
2018-02-24T05:35:19.152Z,28.60
2018-02-24T05:37:13.410Z,29.60
2018-02-24T05:38:13.374Z,29.70
2018-02-24T05:40:08.358Z,28.00
2018-02-24T05:41:08.324Z,28.40
2018-02-24T05:43:02.017Z,29.80
2018-02-24T05:44:01.980Z,29.10
2018-02-24T05:45:55.716Z,27.50
2018-02-24T05:46:55.622Z,28.30
2018-02-24T05:48:51.862Z,27.60
2018-02-24T05:49:51.823Z,26.40
2018-02-24T05:51:45.624Z,28.70
2018-02-24T05:52:45.505Z,27.40
2018-02-24T05:54:39.929Z,29.30
2018-02-24T05:55:39.192Z,31.90
2018-02-24T05:57:33.645Z,30.60
2018-02-24T05:58:32.887Z,29.30
2018-02-24T06:00:26.522Z,30.80
2018-02-24T06:01:26.479Z,32.70
2018-02-24T06:03:20.163Z,29.70
2018-02-24T06:04:20.116Z,30.10
2018-02-24T06:06:13.705Z,30.20
2018-02-24T06:07:13.667Z,31.70
2018-02-24T06:09:08.610Z,28.60
2018-02-24T06:10:07.726Z,26.40
2018-02-24T06:12:01.480Z,31.00
2018-02-24T06:13:01.456Z,28.30
2018-02-24T06:14:55.189Z,28.90
2018-02-24T06:15:55.128Z,28.90
2018-02-24T06:17:48.760Z,28.90
2018-02-24T06:18:48.687Z,29.30
2018-02-24T06:20:42.403Z,29.70
2018-02-24T06:21:42.354Z,30.80
2018-02-24T06:23:36.322Z,31.60
2018-02-24T06:24:35.963Z,31.10
2018-02-24T06:26:31.069Z,32.00
2018-02-24T06:27:30.783Z,31.60
2018-02-24T06:29:24.371Z,30.40
2018-02-24T06:30:24.312Z,30.60
2018-02-24T06:32:17.993Z,30.50
2018-02-24T06:33:17.978Z,31.90
2018-02-24T06:35:11.715Z,30.80
2018-02-24T06:36:11.653Z,31.00
2018-02-24T06:38:05.582Z,27.30
2018-02-24T06:39:05.563Z,28.60
2018-02-24T06:40:59.779Z,28.10
2018-02-24T06:41:59.729Z,28.70
2018-02-24T06:43:53.524Z,30.90
2018-02-24T06:44:53.427Z,31.20
2018-02-24T06:46:47.140Z,29.20
2018-02-24T06:47:47.006Z,28.20
2018-02-24T06:49:41.922Z,31.60
2018-02-24T06:50:40.692Z,31.80
2018-02-24T06:52:34.486Z,31.50
2018-02-24T06:53:34.393Z,28.20
2018-02-24T06:55:28.798Z,28.60
2018-02-24T06:56:27.987Z,30.10
2018-02-24T06:58:22.423Z,31.80
2018-02-24T06:59:21.635Z,29.20
2018-02-24T07:01:16.469Z,27.80
2018-02-24T07:02:16.442Z,27.00
2018-02-24T07:04:10.871Z,30.10
2018-02-24T07:05:10.796Z,27.80
2018-02-24T07:07:05.349Z,27.40
2018-02-24T07:08:05.322Z,30.40
2018-02-24T07:09:59.059Z,28.00
2018-02-24T07:10:58.960Z,29.10
2018-02-24T07:12:53.893Z,27.90
2018-02-24T07:13:53.265Z,25.70
2018-02-24T07:15:47.673Z,26.70
2018-02-24T07:16:46.797Z,27.20
2018-02-24T07:18:40.732Z,27.20
2018-02-24T07:19:40.588Z,29.60
2018-02-24T07:21:35.350Z,27.10
2018-02-24T07:22:34.243Z,27.30
2018-02-24T07:24:27.919Z,25.90
2018-02-24T07:25:27.926Z,29.00
2018-02-24T07:27:21.577Z,28.40
2018-02-24T07:28:21.549Z,29.40
2018-02-24T07:30:15.272Z,25.50
2018-02-24T07:31:15.267Z,26.20
2018-02-24T07:33:10.193Z,27.50
2018-02-24T07:34:09.546Z,27.70
2018-02-24T07:36:05.016Z,25.40
2018-02-24T07:37:04.718Z,27.20
2018-02-24T07:38:58.298Z,28.80
2018-02-24T07:39:58.267Z,24.40
2018-02-24T07:41:52.689Z,20.80
2018-02-24T07:42:51.900Z,23.70
2018-02-24T07:44:45.686Z,25.60
2018-02-24T07:45:45.615Z,27.10
2018-02-24T07:47:42.229Z,25.10
2018-02-24T07:48:42.182Z,25.20
2018-02-24T07:50:35.892Z,25.60
2018-02-24T07:51:35.825Z,25.60
2018-02-24T07:53:30.173Z,23.10
2018-02-24T07:54:30.088Z,24.20
2018-02-24T07:56:24.523Z,26.40
2018-02-24T07:57:23.772Z,23.50
2018-02-24T07:59:17.425Z,23.50
2018-02-24T08:00:17.347Z,24.60
2018-02-24T08:02:12.638Z,23.80
2018-02-24T08:03:12.593Z,22.90
2018-02-24T08:05:09.341Z,23.20
2018-02-24T08:06:09.314Z,23.60
2018-02-24T08:08:05.205Z,21.20
2018-02-24T08:09:03.827Z,21.30
2018-02-24T08:10:57.752Z,23.00
2018-02-24T08:11:57.724Z,23.50
2018-02-24T08:13:52.386Z,22.20
2018-02-24T08:14:52.377Z,20.20
2018-02-24T08:16:45.984Z,21.80
2018-02-24T08:17:45.934Z,21.60
2018-02-24T08:19:39.653Z,21.20
2018-02-24T08:20:39.594Z,22.70
2018-02-24T08:22:33.307Z,20.70
2018-02-24T08:23:33.158Z,20.60
2018-02-24T08:25:26.924Z,20.20
2018-02-24T08:26:26.843Z,21.70
2018-02-24T08:28:22.145Z,22.40
2018-02-24T08:29:22.122Z,22.00
2018-02-24T08:31:15.985Z,18.80
2018-02-24T08:32:15.963Z,17.70
2018-02-24T08:34:12.358Z,21.60
2018-02-24T08:35:11.842Z,18.40
2018-02-24T08:37:05.783Z,20.20
2018-02-24T08:38:05.720Z,22.20
2018-02-24T08:39:59.332Z,16.20
2018-02-24T08:40:59.295Z,19.30
2018-02-24T08:42:52.934Z,20.00
2018-02-24T08:43:52.882Z,19.30
2018-02-24T08:45:46.690Z,18.90
2018-02-24T08:46:46.674Z,17.20
2018-02-24T08:48:40.467Z,20.00
2018-02-24T08:49:40.382Z,18.60
2018-02-24T08:51:34.066Z,16.70
2018-02-24T08:52:34.003Z,19.60
2018-02-24T08:54:27.638Z,17.30
2018-02-24T08:55:27.497Z,18.80
2018-02-24T08:57:21.932Z,19.90
2018-02-24T08:58:21.173Z,16.50
2018-02-24T09:00:14.913Z,14.60
2018-02-24T09:01:14.875Z,15.10
2018-02-24T09:03:10.342Z,15.60
2018-02-24T09:04:09.423Z,16.90
2018-02-24T09:06:04.654Z,16.90
2018-02-24T09:07:04.603Z,15.80
2018-02-24T09:08:58.338Z,16.70
2018-02-24T09:09:58.287Z,15.60
2018-02-24T09:11:52.710Z,15.80
2018-02-24T09:12:51.936Z,15.90
2018-02-24T09:14:46.299Z,14.90
2018-02-24T09:15:46.277Z,14.60
2018-02-24T09:17:40.795Z,13.60
2018-02-24T09:18:40.008Z,17.20
2018-02-24T09:20:36.286Z,14.40
2018-02-24T09:21:36.138Z,17.60
2018-02-24T09:23:29.714Z,13.60
2018-02-24T09:24:29.675Z,16.10
2018-02-24T09:26:23.272Z,15.60
2018-02-24T09:27:23.237Z,13.40
2018-02-24T09:29:16.866Z,13.70
2018-02-24T09:30:16.834Z,14.40
2018-02-24T09:32:11.783Z,13.00
2018-02-24T09:33:10.831Z,13.50
2018-02-24T09:35:05.479Z,13.90
2018-02-24T09:36:05.430Z,13.80
2018-02-24T09:38:00.964Z,13.90
2018-02-24T09:39:00.900Z,12.80
2018-02-24T09:40:55.361Z,12.10
2018-02-24T09:41:54.559Z,12.80
2018-02-24T09:43:49.058Z,12.90
2018-02-24T09:44:48.993Z,13.20
2018-02-24T09:46:42.638Z,14.90
2018-02-24T09:47:42.573Z,12.40
2018-02-24T09:49:37.089Z,12.60
2018-02-24T09:50:36.330Z,11.20
2018-02-24T09:52:30.043Z,13.60
2018-02-24T09:53:30.022Z,13.20
2018-02-24T09:55:23.632Z,14.60
2018-02-24T09:56:23.591Z,13.40
2018-02-24T09:58:17.362Z,13.00
2018-02-24T09:59:17.216Z,14.20
2018-02-24T10:01:11.104Z,12.90
2018-02-24T10:02:11.066Z,12.10
2018-02-24T10:04:05.074Z,11.20
2018-02-24T10:05:05.028Z,13.00
2018-02-24T10:06:58.885Z,12.10
2018-02-24T10:07:58.721Z,11.80
2018-02-24T10:09:52.410Z,11.70
2018-02-24T10:10:52.376Z,12.70
2018-02-24T10:12:46.176Z,11.80
2018-02-24T10:13:46.072Z,10.10
2018-02-24T10:15:39.788Z,10.30
2018-02-24T10:16:39.774Z,11.40
2018-02-24T10:18:35.235Z,10.70
2018-02-24T10:19:34.629Z,9.40
2018-02-24T10:21:28.324Z,8.00
2018-02-24T10:22:28.280Z,8.40
2018-02-24T10:24:21.931Z,9.30
2018-02-24T10:25:21.917Z,8.20
2018-02-24T10:27:16.275Z,9.60
2018-02-24T10:28:16.241Z,10.50
2018-02-24T10:30:10.340Z,9.70
2018-02-24T10:31:10.322Z,9.20
2018-02-24T10:33:06.612Z,9.80
2018-02-24T10:34:06.556Z,10.70
2018-02-24T10:36:01.487Z,10.20
2018-02-24T10:37:00.913Z,9.80
2018-02-24T10:38:54.700Z,12.30
2018-02-24T10:39:54.645Z,10.20
2018-02-24T10:41:49.090Z,9.60
2018-02-24T10:42:49.020Z,10.10
2018-02-24T10:44:42.950Z,8.90
2018-02-24T10:45:42.789Z,8.20
2018-02-24T10:47:36.785Z,7.90
2018-02-24T10:48:36.439Z,8.00
2018-02-24T10:50:30.179Z,8.20
2018-02-24T10:51:30.162Z,8.20
2018-02-24T10:53:23.812Z,8.00
2018-02-24T10:54:23.759Z,9.30
2018-02-24T10:56:17.706Z,7.80
2018-02-24T10:57:17.509Z,7.50
2018-02-24T10:59:12.142Z,7.10
2018-02-24T11:00:12.105Z,8.10
2018-02-24T11:02:08.966Z,7.40
2018-02-24T11:03:08.927Z,6.80
2018-02-24T11:05:03.398Z,6.70
2018-02-24T11:06:03.235Z,7.50
2018-02-24T11:07:57.683Z,7.00
2018-02-24T11:08:57.040Z,7.50
2018-02-24T11:10:51.054Z,6.70
2018-02-24T11:11:50.689Z,7.50
2018-02-24T11:13:44.394Z,7.00
2018-02-24T11:14:44.346Z,8.20
2018-02-24T11:16:38.105Z,7.80
2018-02-24T11:17:38.082Z,7.70
2018-02-24T11:19:33.526Z,7.20
2018-02-24T11:20:31.869Z,7.60
2018-02-24T11:22:25.590Z,6.50
2018-02-24T11:23:25.554Z,7.10
2018-02-24T11:25:19.542Z,6.30
2018-02-24T11:26:19.162Z,8.10
2018-02-24T11:28:12.842Z,6.50
2018-02-24T11:29:12.814Z,6.30
2018-02-24T11:31:07.442Z,5.90
2018-02-24T11:32:07.382Z,7.00
2018-02-24T11:34:00.984Z,6.10
2018-02-24T11:35:00.923Z,8.20
2018-02-24T11:36:55.778Z,6.80
2018-02-24T11:37:55.625Z,5.60
2018-02-24T11:39:52.763Z,5.40
2018-02-24T11:40:52.759Z,7.60
2018-02-24T11:42:46.416Z,5.60
2018-02-24T11:43:46.304Z,5.70
2018-02-24T11:45:40.254Z,5.00
2018-02-24T11:46:39.900Z,5.40
2018-02-24T11:48:33.675Z,4.90
2018-02-24T11:49:33.621Z,5.90
2018-02-24T11:51:27.455Z,4.80
2018-02-24T11:52:27.361Z,5.50
2018-02-24T11:54:21.057Z,4.90
2018-02-24T11:55:21.017Z,5.00
2018-02-24T11:57:15.469Z,4.50
2018-02-24T11:58:15.404Z,5.60
2018-02-24T12:00:10.058Z,5.20
2018-02-24T12:01:10.003Z,5.90
2018-02-24T12:03:07.080Z,5.00
2018-02-24T12:04:04.951Z,4.60
2018-02-24T12:05:59.825Z,5.90
2018-02-24T12:06:59.798Z,5.00
2018-02-24T12:08:53.494Z,5.80
2018-02-24T12:09:53.453Z,5.90
2018-02-24T12:11:47.215Z,5.30
2018-02-24T12:12:47.151Z,5.10
2018-02-24T12:14:41.152Z,5.60
2018-02-24T12:15:40.958Z,6.00
2018-02-24T12:17:34.727Z,5.30
2018-02-24T12:18:34.623Z,5.40
2018-02-24T12:20:29.529Z,5.30
2018-02-24T12:21:29.483Z,4.90
2018-02-24T12:23:23.249Z,7.20
2018-02-24T12:24:23.206Z,6.40
2018-02-24T12:26:18.159Z,5.80
2018-02-24T12:27:17.769Z,6.30
2018-02-24T12:29:13.239Z,5.90
2018-02-24T12:30:11.522Z,7.50
2018-02-24T12:31:11.528Z,5.60
2018-02-24T12:32:11.505Z,5.70
2018-02-24T12:33:11.498Z,5.70
2018-02-24T12:34:11.496Z,5.90
2018-02-24T12:35:11.498Z,6.90
2018-02-24T12:36:11.468Z,6.20
2018-02-24T12:37:11.461Z,7.00
2018-02-24T12:38:11.460Z,6.60
2018-02-24T12:39:11.464Z,6.50
2018-02-24T12:40:11.444Z,7.00
2018-02-24T12:41:11.428Z,6.40
2018-02-24T12:42:11.428Z,7.00
2018-02-24T12:43:11.404Z,7.40
2018-02-24T12:44:11.403Z,7.40
2018-02-24T12:45:11.405Z,8.50
2018-02-24T12:46:11.389Z,7.50
2018-02-24T12:47:11.365Z,7.20
2018-02-24T12:48:11.364Z,7.90
2018-02-24T12:49:11.375Z,6.50
2018-02-24T12:50:11.332Z,6.50
2018-02-24T12:51:11.322Z,7.20
2018-02-24T12:52:11.311Z,6.20
2018-02-24T12:53:11.315Z,7.90
2018-02-24T12:54:11.323Z,7.80
2018-02-24T12:55:11.289Z,6.20
2018-02-24T12:56:11.280Z,6.80
2018-02-24T12:57:11.267Z,7.30
2018-02-24T12:58:11.254Z,7.50
2018-02-24T12:59:11.262Z,7.70
2018-02-24T13:00:11.232Z,7.20
2018-02-24T13:01:11.237Z,7.30
2018-02-24T13:02:11.211Z,8.10
2018-02-24T13:03:11.202Z,7.50
2018-02-24T13:04:11.202Z,8.30
2018-02-24T13:05:11.181Z,8.10
2018-02-24T13:06:11.176Z,5.60
2018-02-24T13:07:11.176Z,6.70
2018-02-24T13:08:11.160Z,8.50
2018-02-24T13:09:11.150Z,7.70
2018-02-24T13:10:11.139Z,6.70
2018-02-24T13:11:11.129Z,7.50
2018-02-24T13:12:11.107Z,7.60
2018-02-24T13:13:11.109Z,7.00
2018-02-24T13:14:11.085Z,7.50
2018-02-24T13:15:11.108Z,7.80
2018-02-24T13:16:11.064Z,8.30
2018-02-24T13:17:11.072Z,7.00
2018-02-24T13:18:11.041Z,7.70
2018-02-24T13:19:11.043Z,8.60
2018-02-24T13:20:11.035Z,7.30
2018-02-24T13:21:11.015Z,7.10
2018-02-24T13:22:11.019Z,7.70
2018-02-24T13:23:10.986Z,11.40
2018-02-24T13:24:11.010Z,8.00
2018-02-24T13:25:10.980Z,8.20
2018-02-24T13:26:11.005Z,8.20
2018-02-24T13:27:10.942Z,8.50
2018-02-24T13:28:10.945Z,8.30
2018-02-24T13:29:10.931Z,9.20
2018-02-24T13:30:10.912Z,9.20
2018-02-24T13:31:10.906Z,9.30
2018-02-24T13:32:10.896Z,8.50
2018-02-24T13:33:10.893Z,11.70
2018-02-24T13:34:10.873Z,10.40
2018-02-24T13:35:10.860Z,11.20
2018-02-24T13:36:10.853Z,9.40
2018-02-24T13:37:10.841Z,10.70
2018-02-24T13:38:10.820Z,10.40
2018-02-24T13:39:10.812Z,7.20
2018-02-24T13:40:10.800Z,9.90
2018-02-24T13:41:10.783Z,8.00
2018-02-24T13:42:10.782Z,9.50
2018-02-24T13:43:10.767Z,8.90
2018-02-24T13:44:10.751Z,9.10
2018-02-24T13:45:10.737Z,11.00
2018-02-24T13:46:10.732Z,10.10
2018-02-24T13:47:10.716Z,8.10
2018-02-24T13:48:10.726Z,9.50
2018-02-24T13:49:10.695Z,10.30
2018-02-24T13:50:10.715Z,10.00
2018-02-24T13:51:10.765Z,7.60
2018-02-24T13:52:10.669Z,9.70
2018-02-24T13:53:10.666Z,11.10
2018-02-24T13:54:10.662Z,10.40
2018-02-24T13:55:10.637Z,8.60
2018-02-24T13:56:10.779Z,9.30
2018-02-24T13:57:10.645Z,10.00
2018-02-24T13:58:10.601Z,11.60
2018-02-24T13:59:10.590Z,8.80
2018-02-24T14:00:10.591Z,9.90
2018-02-24T14:01:10.570Z,9.30
2018-02-24T14:02:10.560Z,8.80
2018-02-24T14:03:10.568Z,9.20
2018-02-24T14:04:10.548Z,11.20
2018-02-24T14:05:10.541Z,10.60
2018-02-24T14:06:10.538Z,9.90
2018-02-24T14:07:10.516Z,7.90
2018-02-24T14:08:10.496Z,11.10
2018-02-24T14:09:10.504Z,8.50
2018-02-24T14:10:10.484Z,8.60
2018-02-24T14:11:10.463Z,9.90
2018-02-24T14:12:10.452Z,7.70
2018-02-24T14:13:10.458Z,9.60
2018-02-24T14:14:10.434Z,7.80
2018-02-24T14:15:10.424Z,7.80
2018-02-24T14:16:10.422Z,8.70
2018-02-24T14:17:10.414Z,7.90
2018-02-24T14:18:10.406Z,8.60
2018-02-24T14:19:10.379Z,8.80
2018-02-24T14:20:10.384Z,8.10
2018-02-24T14:21:10.355Z,8.90
2018-02-24T14:22:10.358Z,9.50
2018-02-24T14:23:10.346Z,9.00
2018-02-24T14:24:10.335Z,9.00
2018-02-24T14:25:10.331Z,8.60
2018-02-24T14:26:10.301Z,8.30
2018-02-24T14:27:10.302Z,8.20
2018-02-24T14:28:10.281Z,8.60
2018-02-24T14:29:10.285Z,8.50
2018-02-24T14:30:10.271Z,9.60
2018-02-24T14:31:10.263Z,9.90
2018-02-24T14:32:10.243Z,8.50
2018-02-24T14:33:10.246Z,9.20
2018-02-24T14:34:10.227Z,8.50
2018-02-24T14:35:10.245Z,8.20
2018-02-24T14:36:10.196Z,7.80
2018-02-24T14:37:10.182Z,9.10
2018-02-24T14:38:10.178Z,9.00
2018-02-24T14:39:10.177Z,7.40
2018-02-24T14:40:10.150Z,7.80
2018-02-24T14:41:10.156Z,7.30
2018-02-24T14:42:10.133Z,7.40
2018-02-24T14:43:10.139Z,7.60
2018-02-24T14:44:10.109Z,7.30
2018-02-24T14:45:10.150Z,7.00
2018-02-24T14:46:10.081Z,6.70
2018-02-24T14:47:10.112Z,7.80
2018-02-24T14:48:10.060Z,7.50
2018-02-24T14:49:10.051Z,6.60
2018-02-24T14:50:10.049Z,6.90
2018-02-24T14:51:10.028Z,7.50
2018-02-24T14:52:10.018Z,6.10
2018-02-24T14:53:10.013Z,9.00
2018-02-24T14:54:09.995Z,6.80
2018-02-24T14:55:09.992Z,7.50
2018-02-24T14:56:09.996Z,8.60
2018-02-24T14:57:09.957Z,6.90
2018-02-24T14:58:09.948Z,6.20
2018-02-24T14:59:09.947Z,6.30
2018-02-24T15:00:09.922Z,6.70
2018-02-24T15:01:09.909Z,6.40
2018-02-24T15:02:09.914Z,6.10
2018-02-24T15:03:09.908Z,6.00
2018-02-24T15:04:09.888Z,5.90
2018-02-24T15:05:09.864Z,5.40
2018-02-24T15:06:09.853Z,7.00
2018-02-24T15:07:09.961Z,4.70
2018-02-24T15:08:09.842Z,6.10
2018-02-24T15:09:09.818Z,5.40
2018-02-24T15:10:09.805Z,6.00
2018-02-24T15:11:10.763Z,5.90
2018-02-24T15:12:09.793Z,6.30
2018-02-24T15:13:09.789Z,6.10
2018-02-24T15:14:09.759Z,6.00
2018-02-24T15:15:09.747Z,5.40
2018-02-24T15:16:09.746Z,7.60
2018-02-24T15:17:09.785Z,7.50
2018-02-24T15:18:09.732Z,6.50
2018-02-24T15:19:09.715Z,5.40
2018-02-24T15:20:09.701Z,6.10
2018-02-24T15:21:09.683Z,5.60
2018-02-24T15:22:09.662Z,4.80
2018-02-24T15:23:09.648Z,5.20
2018-02-24T15:24:09.645Z,3.80
2018-02-24T15:25:09.627Z,6.20
2018-02-24T15:26:09.610Z,5.40
2018-02-24T15:27:09.611Z,5.60
2018-02-24T15:28:09.589Z,5.80
2018-02-24T15:29:09.592Z,5.70
2018-02-24T15:30:09.616Z,4.70
2018-02-24T15:31:09.561Z,4.80
2018-02-24T15:32:09.548Z,5.00
2018-02-24T15:33:09.525Z,5.20
2018-02-24T15:34:09.522Z,5.20
2018-02-24T15:35:09.526Z,5.30
2018-02-24T15:36:09.502Z,5.10
2018-02-24T15:37:09.486Z,6.20
2018-02-24T15:38:09.465Z,6.00
2018-02-24T15:39:09.473Z,4.40
2018-02-24T15:40:09.446Z,4.70
2018-02-24T15:41:09.444Z,6.20
2018-02-24T15:42:09.424Z,4.80
2018-02-24T15:43:09.403Z,4.80
2018-02-24T15:44:09.386Z,3.90
2018-02-24T15:45:09.374Z,4.50
2018-02-24T15:46:09.359Z,5.10